Portada
METAR-TAF:

METAR-TAF

Aeroports :

Nagasaki, Japó

latitud: 32-55N, longitud: 129-55E, altitud: 2 m

Observació

L'informe es va fer fa 46 minuts, a les 02:00 UTC
Vent 15 kt del Nord
Temperatura 29°C
Humitat 66%
Pressió 1005 hPa
Visibilitat 10 km o més
Escasses núvols a una alçada de 3000 ft
Cel ennuvolat a una alçada de 4000 ft

METAR: RJFU 160200Z 35015KT 9999 FEW030 BKN040 29/22 Q1005

Hora: 11:46 (02:46 UTC)

Pronòstic

L'informe es va fer fa 3 hores i 37 minuts, a les 23:09 UTC
Pronòstic vàlid del 16 a les 00 UTC al 17 a les 06 UTC
Vent 12 kt del Nord
Visibilitat 10 km o més
Escasses núvols a una alçada de 2500 ft
Temporalment
l' 16 a les 05 UTC al 16 a les 12 UTC
Vent 18 kt del Nord amb ràfegues de 28 kt

TAF: RJFU 152309Z 1600/1706 36012KT 9999 FEW025 TEMPO 1605/1612 36018G28KT

Observacions i pronòstics meteorològics de més de 4000 aeroports (METAR i TAF).

Les estacions disponibles són els punts grocs i vermells al mapa.

Posi el ratolí al punt desitjat per veure el nom de l'estació.

Feu clic per veure les observacions i els pronòstics meteorològics.

Per canviar el mapa: feu clic els botons verds amb una creu de color negre per apropar; al botó verd amb un guió per allunyar la imatge; o en les fletxes verdes per a mapes adjacents.


METAR-TAF: